KEEO

Meeker Coulter Field Airport

Meeker, Colorado, USA
METAR KEEO 170053Z AUTO 02010G19KT 10SM 11/M03 A3026 RMK AO2 SLP244 T01061033 $
Observed Flight Rules
Oct-17 @ 00:53 UTC (2 hours ago)
Wind Visibility
20° at 10 knots
 Gusting to 19 knots
10 miles
Temperatures Readings
Current 11°C / 52°F
Dewpoint -3°C / 27°F
Humidity 38%
Altimeter 30.26" Hg
Pressure 1024.4 hPa
Elevation 1930
METAR KEEO 170053Z AUTO 02010G19KT 10SM 11/M03 A3026 RMK AO2 SLP244 T01061033 $
Observed Flight Rules
Oct-17 @ 00:53 UTC
(2 hours ago)
Wind Visibility
20° at 10 knots
 Gusting to 19 knots
10 miles
Temperature Dewpoint
11°C / 52°F -3°C / 27°F
Humidity Altimeter Pressure
38% 30.26" Hg 1024.4 hPa